createdAt,value
2017-11-25T00:01:58.779Z,1.11
2017-11-25T00:04:26.336Z,1.06
2017-11-25T00:06:53.914Z,1.02
2017-11-25T00:09:21.675Z,1.04
2017-11-25T00:11:49.232Z,0.99
2017-11-25T00:14:16.851Z,0.83
2017-11-25T00:16:44.421Z,0.70
2017-11-25T00:19:12.024Z,0.76
2017-11-25T00:21:39.585Z,0.86
2017-11-25T00:24:07.179Z,0.99
2017-11-25T00:26:34.744Z,1.08
2017-11-25T00:29:02.337Z,1.08
2017-11-25T00:31:29.987Z,1.06
2017-11-25T00:33:57.533Z,1.13
2017-11-25T00:36:25.125Z,1.06
2017-11-25T00:38:52.711Z,1.10
2017-11-25T00:41:20.269Z,1.14
2017-11-25T00:43:47.858Z,1.12
2017-11-25T00:46:15.424Z,1.15
2017-11-25T00:48:43.021Z,1.14
2017-11-25T00:51:15.599Z,1.15
2017-11-25T00:53:43.175Z,1.16
2017-11-25T00:56:10.729Z,1.14
2017-11-25T00:58:38.328Z,1.15
2017-11-25T01:01:05.895Z,1.21
2017-11-25T01:03:33.467Z,1.25
2017-11-25T01:06:01.067Z,1.30
2017-11-25T01:08:28.633Z,1.32
2017-11-25T01:10:56.192Z,1.35
2017-11-25T01:13:23.838Z,1.32
2017-11-25T01:15:51.414Z,1.34
2017-11-25T01:18:18.974Z,1.38
2017-11-25T01:20:46.592Z,1.17
2017-11-25T01:23:14.141Z,0.96
2017-11-25T01:25:41.741Z,0.84
2017-11-25T01:28:09.422Z,0.77
2017-11-25T01:30:37.020Z,0.73
2017-11-25T01:33:04.701Z,0.58
2017-11-25T01:35:32.344Z,0.56
2017-11-25T01:37:59.960Z,0.63
2017-11-25T01:40:27.537Z,0.62
2017-11-25T01:42:55.127Z,0.69
2017-11-25T01:45:23.006Z,0.78
2017-11-25T01:47:50.591Z,0.77
2017-11-25T01:50:18.224Z,0.69
2017-11-25T01:52:45.786Z,0.74
2017-11-25T01:55:13.511Z,0.73
2017-11-25T01:57:41.144Z,0.79
2017-11-25T02:00:08.819Z,0.86
2017-11-25T02:02:36.379Z,0.98
2017-11-25T02:05:04.025Z,1.07
2017-11-25T02:07:31.671Z,1.09
2017-11-25T02:09:59.263Z,1.16
2017-11-25T02:12:26.845Z,0.95
2017-11-25T02:14:54.414Z,0.83
2017-11-25T02:17:22.000Z,0.79
2017-11-25T02:19:49.635Z,0.88
2017-11-25T02:22:17.224Z,0.86
2017-11-25T02:24:44.838Z,0.93
2017-11-25T02:27:12.481Z,1.06
2017-11-25T02:29:40.064Z,1.15
2017-11-25T02:32:07.657Z,1.19
2017-11-25T02:34:35.262Z,1.16
2017-11-25T02:37:02.835Z,1.08
2017-11-25T02:39:30.402Z,1.06
2017-11-25T02:41:58.017Z,1.03
2017-11-25T02:44:25.595Z,0.93
2017-11-25T02:46:53.169Z,0.81
2017-11-25T02:49:20.835Z,0.92
2017-11-25T02:51:48.443Z,0.99
2017-11-25T02:54:16.431Z,1.14
2017-11-25T02:56:44.486Z,1.23
2017-11-25T02:59:12.481Z,1.29
2017-11-25T03:01:40.066Z,1.21
2017-11-25T03:04:07.690Z,1.16
2017-11-25T03:06:35.298Z,0.99
2017-11-25T03:09:02.969Z,0.78
2017-11-25T03:11:30.600Z,0.83
2017-11-25T03:13:58.147Z,0.93
2017-11-25T03:16:25.723Z,1.00
2017-11-25T03:18:53.331Z,1.03
2017-11-25T03:21:20.878Z,1.09
2017-11-25T03:23:48.452Z,1.02
2017-11-25T03:26:16.035Z,0.99
2017-11-25T03:28:43.606Z,0.98
2017-11-25T03:31:11.520Z,0.97
2017-11-25T03:33:39.223Z,0.85
2017-11-25T03:36:06.906Z,0.79
2017-11-25T03:38:35.750Z,0.82
2017-11-25T03:41:03.370Z,0.65
2017-11-25T03:43:31.000Z,0.39
2017-11-25T03:48:49.468Z,0.55
2017-11-25T03:51:17.024Z,0.54
2017-11-25T03:53:44.593Z,0.48
2017-11-25T03:56:12.175Z,0.50
2017-11-25T03:58:39.739Z,0.45
2017-11-25T04:01:07.324Z,0.55
2017-11-25T04:03:34.954Z,0.52
2017-11-25T04:06:02.563Z,0.55
2017-11-25T04:08:30.109Z,0.55
2017-11-25T04:10:57.683Z,0.55
2017-11-25T04:13:25.231Z,0.57
2017-11-25T04:15:52.808Z,0.59
2017-11-25T04:18:20.559Z,0.72
2017-11-25T04:20:48.140Z,0.96
2017-11-25T04:23:15.795Z,1.11
2017-11-25T04:25:43.407Z,1.17
2017-11-25T04:28:11.060Z,0.89
2017-11-25T04:30:38.656Z,0.71
2017-11-25T04:33:06.327Z,0.62
2017-11-25T04:35:34.654Z,0.60
2017-11-25T04:38:02.204Z,0.74
2017-11-25T04:40:29.822Z,0.83
2017-11-25T04:42:57.400Z,0.93
2017-11-25T04:45:24.996Z,0.89
2017-11-25T04:47:52.609Z,0.96
2017-11-25T04:50:20.201Z,1.08
2017-11-25T04:52:47.813Z,1.10
2017-11-25T04:55:15.429Z,1.26
2017-11-25T04:57:43.012Z,1.39
2017-11-25T05:00:10.616Z,1.54
2017-11-25T05:02:38.268Z,1.38
2017-11-25T05:05:06.071Z,1.37
2017-11-25T05:07:33.629Z,1.51
2017-11-25T05:10:01.203Z,1.55
2017-11-25T05:12:28.825Z,1.63
2017-11-25T05:14:56.415Z,1.46
2017-11-25T05:17:23.978Z,1.38
2017-11-25T05:19:51.566Z,1.23
2017-11-25T05:22:20.176Z,1.15
2017-11-25T05:24:47.741Z,1.23
2017-11-25T05:27:15.329Z,1.40
2017-11-25T05:29:42.936Z,1.41
2017-11-25T05:32:10.562Z,1.25
2017-11-25T05:34:38.195Z,1.25
2017-11-25T05:37:05.753Z,1.28
2017-11-25T05:39:33.424Z,1.31
2017-11-25T05:42:01.036Z,1.43
2017-11-25T05:44:28.607Z,1.41
2017-11-25T05:46:56.179Z,1.30
2017-11-25T05:49:23.791Z,1.20
2017-11-25T05:51:51.340Z,1.09
2017-11-25T05:54:18.913Z,1.03
2017-11-25T05:56:46.486Z,1.12
2017-11-25T05:59:14.019Z,1.09
2017-11-25T06:01:41.576Z,1.18
2017-11-25T06:04:09.213Z,1.21
2017-11-25T06:06:36.811Z,1.27
2017-11-25T06:09:04.995Z,1.35
2017-11-25T06:11:32.919Z,1.25
2017-11-25T06:14:00.611Z,1.16
2017-11-25T06:16:28.253Z,1.03
2017-11-25T06:18:55.812Z,1.11
2017-11-25T06:21:23.400Z,1.06
2017-11-25T06:23:50.977Z,1.21
2017-11-25T06:26:18.561Z,1.21
2017-11-25T06:28:46.199Z,1.20
2017-11-25T06:31:16.462Z,1.25
2017-11-25T06:33:44.099Z,1.16
2017-11-25T06:36:11.673Z,1.23
2017-11-25T06:38:39.242Z,1.20
2017-11-25T06:41:06.812Z,1.08
2017-11-25T06:43:34.967Z,1.09
2017-11-25T06:46:02.533Z,1.13
2017-11-25T06:48:30.095Z,1.12
2017-11-25T06:50:57.684Z,1.08
2017-11-25T06:53:25.553Z,1.24
2017-11-25T06:55:53.473Z,1.40
2017-11-25T06:58:21.056Z,1.53
2017-11-25T07:00:48.639Z,1.67
2017-11-25T07:03:16.195Z,1.45
2017-11-25T07:05:43.755Z,1.44
2017-11-25T07:08:11.347Z,1.41
2017-11-25T07:10:38.939Z,1.28
2017-11-25T07:13:06.586Z,1.30
2017-11-25T07:15:34.162Z,1.36
2017-11-25T07:18:03.920Z,1.49
2017-11-25T07:20:31.496Z,1.68
2017-11-25T07:22:59.067Z,1.91
2017-11-25T07:25:26.633Z,2.10
2017-11-25T07:27:54.194Z,2.15
2017-11-25T07:30:21.760Z,2.18
2017-11-25T07:32:49.342Z,2.25
2017-11-25T07:35:16.900Z,2.29
2017-11-25T07:37:44.474Z,2.35
2017-11-25T07:40:12.043Z,2.14
2017-11-25T07:42:39.771Z,2.35
2017-11-25T07:45:07.412Z,2.51
2017-11-25T07:47:34.973Z,2.71
2017-11-25T07:50:02.745Z,2.58
2017-11-25T07:52:30.360Z,2.66
2017-11-25T07:54:59.662Z,2.49
2017-11-25T07:57:27.449Z,2.44
2017-11-25T07:59:55.034Z,2.76
2017-11-25T08:02:22.714Z,3.11
2017-11-25T08:04:50.264Z,2.88
2017-11-25T08:07:17.866Z,2.59
2017-11-25T08:09:45.425Z,2.37
2017-11-25T08:12:12.986Z,2.42
2017-11-25T08:14:40.586Z,2.65
2017-11-25T08:17:08.258Z,2.58
2017-11-25T08:19:36.678Z,2.63
2017-11-25T08:22:04.260Z,2.80
2017-11-25T08:24:31.815Z,3.05
2017-11-25T08:26:59.370Z,3.17
2017-11-25T08:29:26.957Z,3.50
2017-11-25T08:31:54.530Z,3.65
2017-11-25T08:34:22.259Z,3.59
2017-11-25T08:36:49.850Z,3.78
2017-11-25T08:39:17.418Z,4.12
2017-11-25T08:41:45.003Z,4.13
2017-11-25T08:44:12.574Z,3.92
2017-11-25T08:46:40.134Z,3.60
2017-11-25T08:49:07.723Z,3.40
2017-11-25T08:51:35.353Z,3.65
2017-11-25T08:54:03.068Z,4.20
2017-11-25T08:56:30.747Z,4.79
2017-11-25T08:58:58.353Z,4.96
2017-11-25T09:01:25.915Z,5.10
2017-11-25T09:03:53.457Z,5.04
2017-11-25T09:06:21.059Z,5.04
2017-11-25T09:08:48.609Z,5.02
2017-11-25T09:11:16.351Z,4.88
2017-11-25T09:13:43.930Z,4.66
2017-11-25T09:16:11.502Z,4.67
2017-11-25T09:18:39.098Z,4.54
2017-11-25T09:21:06.776Z,4.85
2017-11-25T09:23:34.346Z,4.90
2017-11-25T09:26:01.896Z,5.17
2017-11-25T09:28:29.554Z,5.29
2017-11-25T09:30:57.120Z,5.45
2017-11-25T09:33:24.699Z,5.55
2017-11-25T09:35:52.275Z,5.54
2017-11-25T09:38:19.915Z,5.48
2017-11-25T09:40:47.461Z,5.40
2017-11-25T09:43:15.054Z,5.57
2017-11-25T09:45:42.641Z,5.47
2017-11-25T09:48:10.256Z,5.57
2017-11-25T09:50:37.854Z,5.46
2017-11-25T09:53:05.572Z,5.35
2017-11-25T09:55:33.150Z,5.21
2017-11-25T09:58:00.788Z,5.55
2017-11-25T10:00:28.510Z,5.38
2017-11-25T10:02:56.075Z,5.12
2017-11-25T10:05:23.656Z,5.15
2017-11-25T10:07:51.216Z,5.81
2017-11-25T10:10:18.811Z,5.67
2017-11-25T10:12:46.427Z,5.75
2017-11-25T10:15:14.006Z,5.76
2017-11-25T10:17:41.576Z,5.55
2017-11-25T10:20:09.158Z,5.51
2017-11-25T10:22:36.778Z,5.49
2017-11-25T10:25:04.333Z,5.56
2017-11-25T10:27:31.914Z,6.16
2017-11-25T10:29:59.494Z,6.49
2017-11-25T10:32:27.042Z,6.38
2017-11-25T10:34:54.682Z,5.90
2017-11-25T10:37:23.583Z,5.90
2017-11-25T10:39:51.195Z,6.00
2017-11-25T10:42:18.809Z,5.99
2017-11-25T10:44:46.458Z,6.36
2017-11-25T10:47:14.095Z,6.96
2017-11-25T10:49:41.716Z,7.39
2017-11-25T10:52:09.490Z,7.93
2017-11-25T10:54:37.056Z,7.86
2017-11-25T10:57:04.735Z,7.47
2017-11-25T10:59:33.250Z,6.83
2017-11-25T11:02:00.820Z,7.25
2017-11-25T11:04:28.432Z,7.80
2017-11-25T11:06:55.973Z,7.72
2017-11-25T11:09:23.981Z,7.79
2017-11-25T11:11:51.534Z,7.72
2017-11-25T11:14:19.143Z,7.62
2017-11-25T11:16:46.730Z,7.23
2017-11-25T11:19:14.425Z,7.28
2017-11-25T11:21:42.000Z,7.62
2017-11-25T11:24:09.576Z,7.75
2017-11-25T11:26:37.115Z,7.98
2017-11-25T11:29:04.690Z,8.06
2017-11-25T11:31:32.286Z,7.99
2017-11-25T11:33:59.836Z,7.97
2017-11-25T11:36:27.441Z,7.80
2017-11-25T11:38:55.082Z,7.84
2017-11-25T11:41:22.639Z,7.77
2017-11-25T11:43:50.177Z,7.81
2017-11-25T11:46:17.758Z,7.81
2017-11-25T11:48:45.364Z,7.74
2017-11-25T11:51:13.103Z,7.61
2017-11-25T11:53:40.677Z,7.51
2017-11-25T11:56:08.313Z,7.44
2017-11-25T11:58:35.870Z,7.36
2017-11-25T12:01:03.513Z,7.24
2017-11-25T12:03:31.183Z,7.14
2017-11-25T12:05:58.772Z,7.15
2017-11-25T12:08:26.359Z,7.08
2017-11-25T12:10:53.975Z,7.07
2017-11-25T12:13:21.802Z,7.08
2017-11-25T12:15:49.368Z,7.23
2017-11-25T12:18:16.972Z,7.22
2017-11-25T12:20:44.576Z,6.94
2017-11-25T12:23:12.195Z,6.61
2017-11-25T12:25:39.940Z,6.52
2017-11-25T12:28:07.528Z,6.76
2017-11-25T12:30:35.098Z,6.94
2017-11-25T12:33:02.710Z,7.22
2017-11-25T12:35:30.331Z,7.23
2017-11-25T12:37:57.892Z,7.12
2017-11-25T12:40:25.512Z,7.00
2017-11-25T12:42:53.115Z,6.95
2017-11-25T12:45:20.679Z,6.91
2017-11-25T12:47:48.308Z,6.89
2017-11-25T12:50:15.888Z,6.87
2017-11-25T12:52:43.489Z,6.89
2017-11-25T12:55:11.687Z,6.99
2017-11-25T12:57:39.282Z,7.09
2017-11-25T13:00:07.043Z,6.67
2017-11-25T13:02:34.681Z,6.45
2017-11-25T13:05:02.298Z,6.46
2017-11-25T13:07:29.896Z,6.72
2017-11-25T13:09:57.501Z,6.91
2017-11-25T13:12:25.292Z,7.11
2017-11-25T13:14:52.891Z,6.93
2017-11-25T13:17:20.454Z,6.85
2017-11-25T13:19:48.026Z,6.82
2017-11-25T13:22:15.636Z,7.02
2017-11-25T13:24:43.251Z,7.00
2017-11-25T13:27:11.037Z,6.75
2017-11-25T13:29:38.648Z,6.68
2017-11-25T13:32:06.216Z,6.59
2017-11-25T13:34:33.811Z,6.63
2017-11-25T13:37:01.418Z,6.45
2017-11-25T13:39:29.018Z,6.39
2017-11-25T13:41:56.600Z,6.44
2017-11-25T13:44:24.199Z,6.30
2017-11-25T13:46:51.830Z,6.31
2017-11-25T13:49:19.378Z,6.27
2017-11-25T13:51:46.956Z,6.37
2017-11-25T13:54:14.508Z,6.43
2017-11-25T13:56:42.094Z,6.15
2017-11-25T13:59:09.684Z,5.83
2017-11-25T14:01:37.261Z,5.81
2017-11-25T14:04:04.851Z,5.45
2017-11-25T14:06:32.508Z,5.22
2017-11-25T14:09:00.199Z,5.03
2017-11-25T14:11:27.996Z,4.95
2017-11-25T14:13:55.586Z,4.89
2017-11-25T14:16:23.946Z,4.82
2017-11-25T14:18:51.510Z,4.78
2017-11-25T14:21:19.087Z,4.74
2017-11-25T14:23:46.664Z,4.81
2017-11-25T14:26:14.235Z,4.81
2017-11-25T14:28:41.823Z,4.70
2017-11-25T14:31:09.461Z,4.70
2017-11-25T14:33:37.355Z,4.69
2017-11-25T14:36:05.263Z,4.51
2017-11-25T14:38:32.814Z,4.53
2017-11-25T14:41:00.388Z,4.45
2017-11-25T14:43:28.022Z,4.48
2017-11-25T14:45:55.609Z,4.32
2017-11-25T14:48:23.913Z,4.16
2017-11-25T14:50:51.497Z,4.17
2017-11-25T14:53:19.066Z,4.13
2017-11-25T14:55:46.640Z,4.04
2017-11-25T14:58:14.231Z,4.14
2017-11-25T15:00:41.816Z,4.16
2017-11-25T15:03:09.451Z,4.07
2017-11-25T15:05:37.428Z,3.99
2017-11-25T15:08:04.977Z,4.03
2017-11-25T15:10:32.797Z,4.03
2017-11-25T15:13:00.419Z,3.99
2017-11-25T15:15:27.990Z,4.03
2017-11-25T15:17:55.586Z,4.06
2017-11-25T15:20:23.160Z,4.06
2017-11-25T15:22:50.933Z,3.94
2017-11-25T15:25:19.010Z,3.98
2017-11-25T15:27:46.598Z,3.98
2017-11-25T15:30:14.235Z,3.98
2017-11-25T15:32:41.833Z,3.94
2017-11-25T15:35:09.429Z,3.98
2017-11-25T15:37:37.058Z,4.01
2017-11-25T15:40:04.652Z,4.00
2017-11-25T15:42:32.239Z,4.08
2017-11-25T15:44:59.869Z,4.14
2017-11-25T15:47:27.435Z,4.18
2017-11-25T15:49:55.030Z,4.26
2017-11-25T15:52:22.598Z,4.26
2017-11-25T15:54:50.169Z,4.30
2017-11-25T15:57:17.799Z,4.42
2017-11-25T15:59:45.728Z,4.56
2017-11-25T16:02:13.266Z,4.62
2017-11-25T16:04:40.823Z,4.64
2017-11-25T16:07:08.452Z,4.70
2017-11-25T16:09:36.293Z,4.74
2017-11-25T16:12:03.889Z,4.79
2017-11-25T16:14:31.483Z,4.85
2017-11-25T16:16:59.105Z,4.93
2017-11-25T16:19:26.690Z,4.95
2017-11-25T16:21:54.291Z,4.98
2017-11-25T16:24:22.522Z,4.97
2017-11-25T16:26:50.097Z,5.04
2017-11-25T16:29:17.710Z,4.99
2017-11-25T16:31:45.290Z,5.02
2017-11-25T16:34:12.859Z,5.03
2017-11-25T16:36:40.477Z,5.07
2017-11-25T16:39:08.117Z,5.07
2017-11-25T16:41:35.693Z,5.06
2017-11-25T16:44:03.295Z,5.07
2017-11-25T16:46:30.907Z,5.07
2017-11-25T16:48:58.513Z,5.10
2017-11-25T16:51:26.103Z,5.05
2017-11-25T16:53:53.657Z,5.06
2017-11-25T16:56:21.250Z,5.10
2017-11-25T16:58:48.888Z,5.06
2017-11-25T17:01:16.446Z,5.05
2017-11-25T17:03:44.005Z,5.07
2017-11-25T17:06:11.582Z,5.09
2017-11-25T17:08:39.176Z,5.12
2017-11-25T17:11:07.369Z,5.14
2017-11-25T17:13:36.204Z,5.14
2017-11-25T17:16:03.794Z,5.18
2017-11-25T17:18:31.376Z,5.16
2017-11-25T17:20:58.968Z,5.10
2017-11-25T17:23:26.666Z,5.10
2017-11-25T17:25:54.289Z,5.09
2017-11-25T17:28:21.897Z,5.13
2017-11-25T17:30:49.619Z,5.12
2017-11-25T17:33:17.187Z,5.16
2017-11-25T17:35:44.776Z,5.14
2017-11-25T17:38:12.367Z,5.16
2017-11-25T17:40:39.916Z,5.18
2017-11-25T17:43:07.610Z,5.20
2017-11-25T17:45:35.177Z,5.24
2017-11-25T17:48:02.745Z,5.21
2017-11-25T17:50:30.678Z,5.23
2017-11-25T17:52:58.238Z,5.24
2017-11-25T17:55:25.796Z,5.24
2017-11-25T17:57:53.366Z,5.29
2017-11-25T18:00:20.923Z,5.27
2017-11-25T18:02:48.467Z,5.29
2017-11-25T18:05:16.056Z,5.28
2017-11-25T18:07:43.594Z,5.32
2017-11-25T18:10:11.139Z,5.37
2017-11-25T18:12:38.711Z,5.41
2017-11-25T18:15:06.446Z,5.42
2017-11-25T18:17:34.519Z,5.47
2017-11-25T18:20:02.155Z,5.47
2017-11-25T18:22:29.719Z,5.48
2017-11-25T18:24:57.317Z,5.45
2017-11-25T18:27:25.003Z,5.44
2017-11-25T18:29:52.634Z,5.48
2017-11-25T18:32:20.693Z,5.42
2017-11-25T18:34:48.278Z,5.40
2017-11-25T18:37:15.871Z,5.42
2017-11-25T18:39:43.436Z,5.37
2017-11-25T18:42:11.022Z,5.31
2017-11-25T18:44:38.734Z,5.27
2017-11-25T18:47:06.308Z,5.32
2017-11-25T18:49:33.884Z,5.27
2017-11-25T18:52:01.545Z,5.27
2017-11-25T18:54:29.108Z,5.29
2017-11-25T18:56:56.682Z,5.30
2017-11-25T18:59:24.289Z,5.34
2017-11-25T19:01:51.872Z,5.34
2017-11-25T19:04:19.461Z,5.30
2017-11-25T19:06:47.731Z,5.29
2017-11-25T19:09:15.283Z,5.30
2017-11-25T19:11:42.857Z,5.30
2017-11-25T19:14:10.432Z,5.31
2017-11-25T19:16:38.025Z,5.26
2017-11-25T19:19:07.283Z,5.24
2017-11-25T19:21:35.406Z,5.25
2017-11-25T19:24:02.988Z,5.20
2017-11-25T19:26:30.551Z,5.18
2017-11-25T19:28:58.125Z,5.21
2017-11-25T19:31:25.715Z,5.24
2017-11-25T19:33:53.303Z,5.23
2017-11-25T19:36:20.961Z,5.26
2017-11-25T19:38:48.545Z,5.25
2017-11-25T19:41:16.141Z,5.29
2017-11-25T19:43:43.719Z,5.30
2017-11-25T19:46:11.302Z,5.29
2017-11-25T19:48:38.878Z,5.27
2017-11-25T19:51:06.507Z,5.32
2017-11-25T19:53:34.109Z,5.33
2017-11-25T19:56:01.666Z,5.29
2017-11-25T19:58:29.218Z,5.27
2017-11-25T20:00:56.796Z,5.24
2017-11-25T20:03:24.343Z,5.20
2017-11-25T20:05:51.904Z,5.19
2017-11-25T20:08:19.489Z,5.24
2017-11-25T20:10:47.116Z,5.22
2017-11-25T20:13:14.788Z,5.24
2017-11-25T20:15:42.408Z,5.18
2017-11-25T20:18:10.084Z,5.18
2017-11-25T20:20:37.649Z,5.17
2017-11-25T20:23:05.440Z,5.12
2017-11-25T20:25:33.026Z,5.13
2017-11-25T20:28:00.602Z,5.11
2017-11-25T20:30:28.193Z,5.08
2017-11-25T20:32:55.754Z,5.09
2017-11-25T20:35:23.334Z,5.14
2017-11-25T20:37:50.915Z,5.14
2017-11-25T20:40:18.503Z,5.20
2017-11-25T20:42:46.055Z,5.17
2017-11-25T20:45:13.707Z,5.16
2017-11-25T20:47:41.352Z,5.13
2017-11-25T20:50:08.922Z,5.17
2017-11-25T20:52:36.493Z,5.17
2017-11-25T20:55:04.081Z,5.16
2017-11-25T20:57:31.680Z,5.16
2017-11-25T20:59:59.276Z,5.17
2017-11-25T21:02:26.822Z,5.14
2017-11-25T21:04:54.395Z,5.16
2017-11-25T21:07:21.969Z,5.18
2017-11-25T21:09:49.542Z,5.15
2017-11-25T21:12:17.198Z,5.13
2017-11-25T21:14:44.765Z,5.15
2017-11-25T21:17:12.479Z,5.17
2017-11-25T21:19:40.103Z,5.23
2017-11-25T21:22:07.663Z,5.17
2017-11-25T21:24:35.217Z,5.17
2017-11-25T21:27:02.872Z,5.13
2017-11-25T21:29:30.658Z,5.17
2017-11-25T21:31:58.215Z,5.22
2017-11-25T21:34:25.836Z,5.24
2017-11-25T21:36:55.348Z,5.21
2017-11-25T21:39:22.900Z,5.24
2017-11-25T21:41:50.495Z,5.19
2017-11-25T21:44:18.076Z,5.21
2017-11-25T21:46:45.676Z,5.14
2017-11-25T21:49:13.290Z,5.17
2017-11-25T21:51:40.854Z,5.18
2017-11-25T21:54:08.397Z,5.15
2017-11-25T21:56:36.037Z,5.16
2017-11-25T21:59:03.599Z,5.15
2017-11-25T22:01:31.160Z,5.20
2017-11-25T22:03:58.746Z,5.19
2017-11-25T22:06:26.341Z,5.18
2017-11-25T22:08:53.945Z,5.20
2017-11-25T22:11:21.633Z,5.23
2017-11-25T22:13:49.209Z,5.22
2017-11-25T22:16:16.773Z,5.25
2017-11-25T22:18:44.330Z,5.25
2017-11-25T22:21:12.025Z,5.25
2017-11-25T22:23:39.664Z,5.22
2017-11-25T22:26:07.234Z,5.16
2017-11-25T22:28:34.806Z,5.15
2017-11-25T22:31:02.368Z,5.11
2017-11-25T22:33:29.947Z,5.12
2017-11-25T22:35:57.540Z,5.22
2017-11-25T22:38:25.113Z,5.22
2017-11-25T22:40:52.722Z,5.15
2017-11-25T22:43:20.287Z,5.15
2017-11-25T22:45:47.862Z,5.13
2017-11-25T22:48:15.485Z,5.23
2017-11-25T22:50:43.068Z,5.19
2017-11-25T22:53:10.626Z,5.18
2017-11-25T22:55:39.005Z,5.25
2017-11-25T22:58:06.562Z,5.20
2017-11-25T23:00:34.154Z,5.19
2017-11-25T23:03:01.730Z,5.25
2017-11-25T23:05:29.328Z,5.24
2017-11-25T23:07:56.873Z,5.19
2017-11-25T23:10:24.482Z,5.23
2017-11-25T23:12:52.070Z,5.22
2017-11-25T23:15:19.617Z,5.18
2017-11-25T23:17:47.184Z,5.15
2017-11-25T23:20:14.795Z,5.23
2017-11-25T23:22:42.360Z,5.17
2017-11-25T23:25:10.086Z,5.24
2017-11-25T23:27:40.998Z,5.15
2017-11-25T23:30:08.545Z,5.13
2017-11-25T23:32:36.115Z,5.09
2017-11-25T23:35:03.709Z,5.17
2017-11-25T23:37:31.300Z,5.17
2017-11-25T23:39:58.865Z,5.15
2017-11-25T23:42:26.448Z,5.13
2017-11-25T23:44:54.001Z,5.11
2017-11-25T23:47:21.616Z,5.12
2017-11-25T23:49:49.221Z,5.18
2017-11-25T23:52:16.762Z,5.13
2017-11-25T23:54:45.354Z,5.16
2017-11-25T23:57:12.999Z,5.18
2017-11-25T23:59:40.577Z,5.11
